sensor_id;sensor_type;location;lat;lon;timestamp;P1;durP1;ratioP1;P2;durP2;ratioP2
3280;SDS011;1652;51.318;6.202;2023-04-25T00:02:16;9.93;;;4.90;;
3280;SDS011;1652;51.318;6.202;2023-04-25T00:04:42;17.03;;;5.67;;
3280;SDS011;1652;51.318;6.202;2023-04-25T00:07:11;11.30;;;5.57;;
3280;SDS011;1652;51.318;6.202;2023-04-25T00:09:38;12.50;;;6.03;;
3280;SDS011;1652;51.318;6.202;2023-04-25T00:12:05;12.13;;;4.77;;
3280;SDS011;1652;51.318;6.202;2023-04-25T00:14:32;15.37;;;5.50;;
3280;SDS011;1652;51.318;6.202;2023-04-25T00:17:02;15.70;;;5.70;;
3280;SDS011;1652;51.318;6.202;2023-04-25T00:19:30;7.33;;;4.90;;
3280;SDS011;1652;51.318;6.202;2023-04-25T00:21:58;18.80;;;5.60;;
3280;SDS011;1652;51.318;6.202;2023-04-25T00:24:26;11.10;;;5.67;;
3280;SDS011;1652;51.318;6.202;2023-04-25T00:26:53;15.40;;;5.43;;
3280;SDS011;1652;51.318;6.202;2023-04-25T00:29:19;15.13;;;5.57;;
3280;SDS011;1652;51.318;6.202;2023-04-25T00:31:46;20.27;;;5.43;;
3280;SDS011;1652;51.318;6.202;2023-04-25T00:34:13;13.13;;;5.70;;
3280;SDS011;1652;51.318;6.202;2023-04-25T00:36:40;17.07;;;4.57;;
3280;SDS011;1652;51.318;6.202;2023-04-25T00:39:07;14.13;;;4.83;;
3280;SDS011;1652;51.318;6.202;2023-04-25T00:41:34;10.40;;;4.97;;
3280;SDS011;1652;51.318;6.202;2023-04-25T00:44:02;11.53;;;4.90;;
3280;SDS011;1652;51.318;6.202;2023-04-25T00:46:30;11.00;;;4.83;;
3280;SDS011;1652;51.318;6.202;2023-04-25T00:48:57;14.43;;;5.40;;
3280;SDS011;1652;51.318;6.202;2023-04-25T00:51:24;11.30;;;4.30;;
3280;SDS011;1652;51.318;6.202;2023-04-25T00:53:53;16.53;;;4.90;;
3280;SDS011;1652;51.318;6.202;2023-04-25T00:56:20;8.17;;;4.33;;
3280;SDS011;1652;51.318;6.202;2023-04-25T00:58:47;15.60;;;4.70;;
3280;SDS011;1652;51.318;6.202;2023-04-25T01:01:15;7.10;;;4.53;;
3280;SDS011;1652;51.318;6.202;2023-04-25T01:03:42;11.40;;;3.90;;
3280;SDS011;1652;51.318;6.202;2023-04-25T01:06:12;8.50;;;4.80;;
3280;SDS011;1652;51.318;6.202;2023-04-25T01:08:39;9.07;;;4.20;;
3280;SDS011;1652;51.318;6.202;2023-04-25T01:11:06;9.33;;;4.47;;
3280;SDS011;1652;51.318;6.202;2023-04-25T01:13:34;6.60;;;3.90;;
3280;SDS011;1652;51.318;6.202;2023-04-25T01:16:01;7.43;;;4.90;;
3280;SDS011;1652;51.318;6.202;2023-04-25T01:18:29;8.70;;;4.80;;
3280;SDS011;1652;51.318;6.202;2023-04-25T01:20:56;8.73;;;4.60;;
3280;SDS011;1652;51.318;6.202;2023-04-25T01:23:40;8.97;;;4.20;;
3280;SDS011;1652;51.318;6.202;2023-04-25T01:26:10;17.33;;;4.90;;
3280;SDS011;1652;51.318;6.202;2023-04-25T01:28:39;21.70;;;5.97;;
3280;SDS011;1652;51.318;6.202;2023-04-25T01:31:09;10.03;;;5.10;;
3280;SDS011;1652;51.318;6.202;2023-04-25T01:33:37;9.33;;;4.60;;
3280;SDS011;1652;51.318;6.202;2023-04-25T01:36:04;15.47;;;5.00;;
3280;SDS011;1652;51.318;6.202;2023-04-25T01:38:31;8.60;;;4.90;;
3280;SDS011;1652;51.318;6.202;2023-04-25T01:40:59;13.13;;;5.03;;
3280;SDS011;1652;51.318;6.202;2023-04-25T01:43:26;10.10;;;4.30;;
3280;SDS011;1652;51.318;6.202;2023-04-25T01:45:53;9.33;;;4.03;;
3280;SDS011;1652;51.318;6.202;2023-04-25T01:48:19;8.60;;;4.70;;
3280;SDS011;1652;51.318;6.202;2023-04-25T01:50:46;8.43;;;4.47;;
3280;SDS011;1652;51.318;6.202;2023-04-25T01:53:13;9.17;;;4.47;;
3280;SDS011;1652;51.318;6.202;2023-04-25T01:55:41;13.60;;;5.20;;
3280;SDS011;1652;51.318;6.202;2023-04-25T01:58:08;11.87;;;5.17;;
3280;SDS011;1652;51.318;6.202;2023-04-25T02:00:40;16.73;;;4.93;;
3280;SDS011;1652;51.318;6.202;2023-04-25T02:03:07;8.30;;;4.60;;
3280;SDS011;1652;51.318;6.202;2023-04-25T02:05:35;33.23;;;14.50;;
3280;SDS011;1652;51.318;6.202;2023-04-25T02:08:07;13.70;;;5.10;;
3280;SDS011;1652;51.318;6.202;2023-04-25T02:10:34;11.20;;;4.33;;
3280;SDS011;1652;51.318;6.202;2023-04-25T02:13:02;11.77;;;4.60;;
3280;SDS011;1652;51.318;6.202;2023-04-25T02:15:30;15.00;;;4.43;;
3280;SDS011;1652;51.318;6.202;2023-04-25T02:17:58;10.83;;;4.10;;
3280;SDS011;1652;51.318;6.202;2023-04-25T02:20:26;9.27;;;4.80;;
3280;SDS011;1652;51.318;6.202;2023-04-25T02:22:55;8.63;;;4.30;;
3280;SDS011;1652;51.318;6.202;2023-04-25T02:25:21;17.23;;;4.90;;
3280;SDS011;1652;51.318;6.202;2023-04-25T02:27:49;12.60;;;4.63;;
3280;SDS011;1652;51.318;6.202;2023-04-25T02:30:17;11.73;;;4.47;;
3280;SDS011;1652;51.318;6.202;2023-04-25T02:32:44;9.60;;;4.90;;
3280;SDS011;1652;51.318;6.202;2023-04-25T02:35:11;16.73;;;5.43;;
3280;SDS011;1652;51.318;6.202;2023-04-25T02:37:38;12.20;;;6.33;;
3280;SDS011;1652;51.318;6.202;2023-04-25T02:40:06;12.67;;;5.80;;
3280;SDS011;1652;51.318;6.202;2023-04-25T02:42:34;11.10;;;6.23;;
3280;SDS011;1652;51.318;6.202;2023-04-25T02:45:01;9.70;;;5.30;;
3280;SDS011;1652;51.318;6.202;2023-04-25T02:47:29;10.27;;;5.63;;
3280;SDS011;1652;51.318;6.202;2023-04-25T02:49:56;30.53;;;7.70;;
3280;SDS011;1652;51.318;6.202;2023-04-25T02:52:23;18.30;;;6.30;;
3280;SDS011;1652;51.318;6.202;2023-04-25T02:54:50;29.40;;;7.10;;
3280;SDS011;1652;51.318;6.202;2023-04-25T02:57:17;19.93;;;6.10;;
3280;SDS011;1652;51.318;6.202;2023-04-25T02:59:43;12.73;;;6.53;;
3280;SDS011;1652;51.318;6.202;2023-04-25T03:02:10;19.33;;;5.40;;
3280;SDS011;1652;51.318;6.202;2023-04-25T03:04:37;13.73;;;6.20;;
3280;SDS011;1652;51.318;6.202;2023-04-25T03:07:05;22.47;;;6.40;;
3280;SDS011;1652;51.318;6.202;2023-04-25T03:09:31;15.37;;;6.90;;
3280;SDS011;1652;51.318;6.202;2023-04-25T03:11:59;22.83;;;7.90;;
3280;SDS011;1652;51.318;6.202;2023-04-25T03:14:26;16.13;;;6.40;;
3280;SDS011;1652;51.318;6.202;2023-04-25T03:16:53;10.43;;;5.90;;
3280;SDS011;1652;51.318;6.202;2023-04-25T03:19:20;16.10;;;6.90;;
3280;SDS011;1652;51.318;6.202;2023-04-25T03:21:47;21.57;;;6.43;;
3280;SDS011;1652;51.318;6.202;2023-04-25T03:24:14;19.60;;;6.97;;
3280;SDS011;1652;51.318;6.202;2023-04-25T03:26:41;14.43;;;6.13;;
3280;SDS011;1652;51.318;6.202;2023-04-25T03:29:08;17.47;;;6.53;;
3280;SDS011;1652;51.318;6.202;2023-04-25T03:31:35;26.53;;;7.93;;
3280;SDS011;1652;51.318;6.202;2023-04-25T03:34:02;19.60;;;6.40;;
3280;SDS011;1652;51.318;6.202;2023-04-25T03:36:29;13.63;;;6.57;;
3280;SDS011;1652;51.318;6.202;2023-04-25T03:38:56;13.33;;;7.20;;
3280;SDS011;1652;51.318;6.202;2023-04-25T03:41:23;21.97;;;6.80;;
3280;SDS011;1652;51.318;6.202;2023-04-25T03:43:51;15.97;;;5.97;;
3280;SDS011;1652;51.318;6.202;2023-04-25T03:46:18;16.90;;;5.40;;
3280;SDS011;1652;51.318;6.202;2023-04-25T03:48:45;26.73;;;6.70;;
3280;SDS011;1652;51.318;6.202;2023-04-25T03:51:12;19.93;;;6.40;;
3280;SDS011;1652;51.318;6.202;2023-04-25T03:53:39;19.40;;;7.20;;
3280;SDS011;1652;51.318;6.202;2023-04-25T03:56:06;16.77;;;6.67;;
3280;SDS011;1652;51.318;6.202;2023-04-25T03:58:33;16.93;;;6.20;;
3280;SDS011;1652;51.318;6.202;2023-04-25T04:01:00;16.90;;;6.50;;
3280;SDS011;1652;51.318;6.202;2023-04-25T04:03:29;14.23;;;5.83;;
3280;SDS011;1652;51.318;6.202;2023-04-25T04:05:56;20.10;;;7.10;;
3280;SDS011;1652;51.318;6.202;2023-04-25T04:08:24;23.10;;;7.93;;
3280;SDS011;1652;51.318;6.202;2023-04-25T04:10:51;25.00;;;7.10;;
3280;SDS011;1652;51.318;6.202;2023-04-25T04:13:17;20.23;;;6.83;;
3280;SDS011;1652;51.318;6.202;2023-04-25T04:15:44;15.93;;;7.10;;
3280;SDS011;1652;51.318;6.202;2023-04-25T04:18:11;15.33;;;6.47;;
3280;SDS011;1652;51.318;6.202;2023-04-25T04:20:38;16.67;;;6.63;;
3280;SDS011;1652;51.318;6.202;2023-04-25T04:23:05;21.80;;;6.90;;
3280;SDS011;1652;51.318;6.202;2023-04-25T04:25:32;24.10;;;7.90;;
3280;SDS011;1652;51.318;6.202;2023-04-25T04:27:59;16.70;;;5.83;;
3280;SDS011;1652;51.318;6.202;2023-04-25T04:30:27;20.53;;;7.03;;
3280;SDS011;1652;51.318;6.202;2023-04-25T04:32:57;22.70;;;7.03;;
3280;SDS011;1652;51.318;6.202;2023-04-25T04:35:24;10.93;;;6.33;;
3280;SDS011;1652;51.318;6.202;2023-04-25T04:37:51;23.97;;;6.70;;
3280;SDS011;1652;51.318;6.202;2023-04-25T04:40:18;23.30;;;7.10;;
3280;SDS011;1652;51.318;6.202;2023-04-25T04:42:46;15.77;;;6.40;;
3280;SDS011;1652;51.318;6.202;2023-04-25T04:45:13;16.60;;;6.43;;
3280;SDS011;1652;51.318;6.202;2023-04-25T04:47:40;27.97;;;6.73;;
3280;SDS011;1652;51.318;6.202;2023-04-25T04:50:08;15.33;;;7.27;;
3280;SDS011;1652;51.318;6.202;2023-04-25T04:52:36;10.07;;;6.33;;
3280;SDS011;1652;51.318;6.202;2023-04-25T04:55:04;16.37;;;6.67;;
3280;SDS011;1652;51.318;6.202;2023-04-25T04:57:32;18.33;;;6.13;;
3280;SDS011;1652;51.318;6.202;2023-04-25T04:59:59;15.23;;;5.83;;
3280;SDS011;1652;51.318;6.202;2023-04-25T05:05:01;16.17;;;6.30;;
3280;SDS011;1652;51.318;6.202;2023-04-25T05:07:28;10.20;;;5.90;;
3280;SDS011;1652;51.318;6.202;2023-04-25T05:09:55;10.43;;;5.87;;
3280;SDS011;1652;51.318;6.202;2023-04-25T05:12:22;23.70;;;6.43;;
3280;SDS011;1652;51.318;6.202;2023-04-25T05:14:49;18.37;;;5.10;;
3280;SDS011;1652;51.318;6.202;2023-04-25T05:17:16;11.60;;;5.60;;
3280;SDS011;1652;51.318;6.202;2023-04-25T05:19:43;19.33;;;5.80;;
3280;SDS011;1652;51.318;6.202;2023-04-25T05:22:10;17.73;;;5.73;;
3280;SDS011;1652;51.318;6.202;2023-04-25T05:24:37;12.60;;;5.40;;
3280;SDS011;1652;51.318;6.202;2023-04-25T05:27:03;14.27;;;6.03;;
3280;SDS011;1652;51.318;6.202;2023-04-25T05:29:32;16.40;;;5.77;;
3280;SDS011;1652;51.318;6.202;2023-04-25T05:31:58;11.67;;;5.43;;
3280;SDS011;1652;51.318;6.202;2023-04-25T05:34:25;8.60;;;3.93;;
3280;SDS011;1652;51.318;6.202;2023-04-25T05:36:52;15.03;;;4.47;;
3280;SDS011;1652;51.318;6.202;2023-04-25T05:39:19;9.50;;;4.40;;
3280;SDS011;1652;51.318;6.202;2023-04-25T05:41:46;17.47;;;5.73;;
3280;SDS011;1652;51.318;6.202;2023-04-25T05:44:13;14.77;;;5.00;;
3280;SDS011;1652;51.318;6.202;2023-04-25T05:46:42;13.37;;;5.07;;
3280;SDS011;1652;51.318;6.202;2023-04-25T05:49:09;11.10;;;5.00;;
3280;SDS011;1652;51.318;6.202;2023-04-25T05:51:36;9.30;;;5.20;;
3280;SDS011;1652;51.318;6.202;2023-04-25T05:54:03;16.57;;;5.30;;
3280;SDS011;1652;51.318;6.202;2023-04-25T05:56:29;14.77;;;5.50;;
3280;SDS011;1652;51.318;6.202;2023-04-25T05:58:56;17.30;;;5.80;;
3280;SDS011;1652;51.318;6.202;2023-04-25T06:01:23;19.30;;;5.67;;
3280;SDS011;1652;51.318;6.202;2023-04-25T06:03:50;14.47;;;4.50;;
3280;SDS011;1652;51.318;6.202;2023-04-25T06:06:19;12.17;;;5.30;;
3280;SDS011;1652;51.318;6.202;2023-04-25T06:08:46;21.53;;;5.30;;
3280;SDS011;1652;51.318;6.202;2023-04-25T06:11:13;12.57;;;4.67;;
3280;SDS011;1652;51.318;6.202;2023-04-25T06:13:40;5.03;;;4.43;;
3280;SDS011;1652;51.318;6.202;2023-04-25T06:16:07;10.17;;;5.20;;
3280;SDS011;1652;51.318;6.202;2023-04-25T06:18:34;8.50;;;4.23;;
3280;SDS011;1652;51.318;6.202;2023-04-25T06:21:01;14.63;;;5.30;;
3280;SDS011;1652;51.318;6.202;2023-04-25T06:23:28;14.23;;;3.73;;
3280;SDS011;1652;51.318;6.202;2023-04-25T06:25:55;12.63;;;4.20;;
3280;SDS011;1652;51.318;6.202;2023-04-25T06:28:22;12.83;;;3.83;;
3280;SDS011;1652;51.318;6.202;2023-04-25T06:30:50;8.67;;;4.00;;
3280;SDS011;1652;51.318;6.202;2023-04-25T06:33:17;17.87;;;3.60;;
3280;SDS011;1652;51.318;6.202;2023-04-25T06:35:44;13.13;;;3.90;;
3280;SDS011;1652;51.318;6.202;2023-04-25T06:38:12;11.40;;;3.50;;
3280;SDS011;1652;51.318;6.202;2023-04-25T06:40:39;16.23;;;3.37;;
3280;SDS011;1652;51.318;6.202;2023-04-25T06:43:05;13.40;;;3.77;;
3280;SDS011;1652;51.318;6.202;2023-04-25T06:45:33;13.00;;;2.93;;
3280;SDS011;1652;51.318;6.202;2023-04-25T06:48:00;8.63;;;3.20;;
3280;SDS011;1652;51.318;6.202;2023-04-25T06:50:27;16.87;;;3.70;;
3280;SDS011;1652;51.318;6.202;2023-04-25T06:52:53;7.33;;;3.80;;
3280;SDS011;1652;51.318;6.202;2023-04-25T06:55:20;11.77;;;3.70;;
3280;SDS011;1652;51.318;6.202;2023-04-25T06:57:47;7.43;;;3.13;;
3280;SDS011;1652;51.318;6.202;2023-04-25T07:00:14;15.70;;;3.80;;
3280;SDS011;1652;51.318;6.202;2023-04-25T07:02:41;9.17;;;3.03;;
3280;SDS011;1652;51.318;6.202;2023-04-25T07:05:10;10.57;;;2.83;;
3280;SDS011;1652;51.318;6.202;2023-04-25T07:07:37;9.03;;;3.13;;
3280;SDS011;1652;51.318;6.202;2023-04-25T07:10:04;25.63;;;4.87;;
3280;SDS011;1652;51.318;6.202;2023-04-25T07:12:31;10.50;;;3.53;;
3280;SDS011;1652;51.318;6.202;2023-04-25T07:14:58;9.60;;;2.90;;
3280;SDS011;1652;51.318;6.202;2023-04-25T07:17:25;10.77;;;3.50;;
3280;SDS011;1652;51.318;6.202;2023-04-25T07:19:52;12.47;;;3.10;;
3280;SDS011;1652;51.318;6.202;2023-04-25T07:22:19;3.33;;;2.43;;
3280;SDS011;1652;51.318;6.202;2023-04-25T07:24:46;9.87;;;2.57;;
3280;SDS011;1652;51.318;6.202;2023-04-25T07:27:15;8.20;;;3.13;;
3280;SDS011;1652;51.318;6.202;2023-04-25T07:29:42;20.57;;;3.60;;
3280;SDS011;1652;51.318;6.202;2023-04-25T07:32:08;7.50;;;2.33;;
3280;SDS011;1652;51.318;6.202;2023-04-25T07:34:38;7.33;;;2.67;;
3280;SDS011;1652;51.318;6.202;2023-04-25T07:37:05;7.70;;;3.17;;
3280;SDS011;1652;51.318;6.202;2023-04-25T07:39:32;11.47;;;3.40;;
3280;SDS011;1652;51.318;6.202;2023-04-25T07:41:59;8.67;;;2.70;;
3280;SDS011;1652;51.318;6.202;2023-04-25T07:44:26;7.43;;;2.63;;
3280;SDS011;1652;51.318;6.202;2023-04-25T07:46:53;8.20;;;3.30;;
3280;SDS011;1652;51.318;6.202;2023-04-25T07:49:20;11.47;;;3.47;;
3280;SDS011;1652;51.318;6.202;2023-04-25T07:51:47;6.00;;;2.40;;
3280;SDS011;1652;51.318;6.202;2023-04-25T07:54:14;16.90;;;3.43;;
3280;SDS011;1652;51.318;6.202;2023-04-25T07:56:42;7.77;;;3.10;;
3280;SDS011;1652;51.318;6.202;2023-04-25T07:59:18;6.03;;;1.40;;
3280;SDS011;1652;51.318;6.202;2023-04-25T08:01:45;3.73;;;2.13;;
3280;SDS011;1652;51.318;6.202;2023-04-25T08:04:11;5.97;;;2.83;;
3280;SDS011;1652;51.318;6.202;2023-04-25T08:06:39;8.70;;;3.27;;
3280;SDS011;1652;51.318;6.202;2023-04-25T08:09:06;5.33;;;2.67;;
3280;SDS011;1652;51.318;6.202;2023-04-25T08:11:35;9.33;;;4.23;;
3280;SDS011;1652;51.318;6.202;2023-04-25T08:14:03;6.50;;;3.10;;
3280;SDS011;1652;51.318;6.202;2023-04-25T08:16:30;5.43;;;2.67;;
3280;SDS011;1652;51.318;6.202;2023-04-25T08:18:57;10.13;;;2.70;;
3280;SDS011;1652;51.318;6.202;2023-04-25T08:21:25;5.97;;;2.40;;
3280;SDS011;1652;51.318;6.202;2023-04-25T08:23:53;5.57;;;2.40;;
3280;SDS011;1652;51.318;6.202;2023-04-25T08:26:20;6.73;;;3.00;;
3280;SDS011;1652;51.318;6.202;2023-04-25T08:28:47;10.80;;;2.20;;
3280;SDS011;1652;51.318;6.202;2023-04-25T08:31:14;4.87;;;2.80;;
3280;SDS011;1652;51.318;6.202;2023-04-25T08:33:42;9.80;;;2.37;;
3280;SDS011;1652;51.318;6.202;2023-04-25T08:36:09;6.97;;;1.83;;
3280;SDS011;1652;51.318;6.202;2023-04-25T08:38:36;10.20;;;2.40;;
3280;SDS011;1652;51.318;6.202;2023-04-25T08:41:03;8.97;;;3.00;;
3280;SDS011;1652;51.318;6.202;2023-04-25T08:43:33;20.30;;;2.87;;
3280;SDS011;1652;51.318;6.202;2023-04-25T08:46:09;7.77;;;2.30;;
3280;SDS011;1652;51.318;6.202;2023-04-25T08:48:51;11.67;;;2.50;;
3280;SDS011;1652;51.318;6.202;2023-04-25T08:51:24;7.17;;;2.00;;
3280;SDS011;1652;51.318;6.202;2023-04-25T08:53:54;6.53;;;2.70;;
3280;SDS011;1652;51.318;6.202;2023-04-25T08:56:43;11.17;;;2.80;;
3280;SDS011;1652;51.318;6.202;2023-04-25T08:59:17;4.30;;;2.10;;
3280;SDS011;1652;51.318;6.202;2023-04-25T09:01:44;4.90;;;1.90;;
3280;SDS011;1652;51.318;6.202;2023-04-25T09:04:14;6.50;;;2.20;;
3280;SDS011;1652;51.318;6.202;2023-04-25T09:06:42;2.80;;;2.13;;
3280;SDS011;1652;51.318;6.202;2023-04-25T09:09:10;3.53;;;1.83;;
3280;SDS011;1652;51.318;6.202;2023-04-25T09:11:38;5.60;;;1.50;;
3280;SDS011;1652;51.318;6.202;2023-04-25T09:17:00;7.70;;;1.63;;
3280;SDS011;1652;51.318;6.202;2023-04-25T09:19:34;2.90;;;1.40;;
3280;SDS011;1652;51.318;6.202;2023-04-25T09:22:09;3.00;;;1.57;;
3280;SDS011;1652;51.318;6.202;2023-04-25T09:24:38;4.97;;;2.00;;
3280;SDS011;1652;51.318;6.202;2023-04-25T09:27:11;5.60;;;2.50;;
3280;SDS011;1652;51.318;6.202;2023-04-25T09:29:44;3.43;;;1.73;;
3280;SDS011;1652;51.318;6.202;2023-04-25T09:34:50;9.33;;;2.53;;
3280;SDS011;1652;51.318;6.202;2023-04-25T09:37:18;12.03;;;2.03;;
3280;SDS011;1652;51.318;6.202;2023-04-25T09:39:56;3.20;;;1.70;;
3280;SDS011;1652;51.318;6.202;2023-04-25T09:42:27;2.10;;;1.50;;
3280;SDS011;1652;51.318;6.202;2023-04-25T09:45:01;12.63;;;2.43;;
3280;SDS011;1652;51.318;6.202;2023-04-25T09:47:30;4.37;;;1.83;;
3280;SDS011;1652;51.318;6.202;2023-04-25T09:49:57;7.87;;;2.63;;
3280;SDS011;1652;51.318;6.202;2023-04-25T09:52:24;6.53;;;2.10;;
3280;SDS011;1652;51.318;6.202;2023-04-25T09:54:52;8.70;;;1.67;;
3280;SDS011;1652;51.318;6.202;2023-04-25T09:57:20;5.40;;;2.40;;
3280;SDS011;1652;51.318;6.202;2023-04-25T09:59:49;9.23;;;1.73;;
3280;SDS011;1652;51.318;6.202;2023-04-25T10:05:05;9.43;;;2.27;;
3280;SDS011;1652;51.318;6.202;2023-04-25T10:07:33;5.20;;;2.10;;
3280;SDS011;1652;51.318;6.202;2023-04-25T10:10:04;6.00;;;2.83;;
3280;SDS011;1652;51.318;6.202;2023-04-25T10:12:32;4.90;;;1.80;;
3280;SDS011;1652;51.318;6.202;2023-04-25T10:15:00;4.10;;;2.00;;
3280;SDS011;1652;51.318;6.202;2023-04-25T10:17:29;3.33;;;1.63;;
3280;SDS011;1652;51.318;6.202;2023-04-25T10:19:56;6.37;;;3.20;;
3280;SDS011;1652;51.318;6.202;2023-04-25T10:22:26;5.77;;;1.90;;
3280;SDS011;1652;51.318;6.202;2023-04-25T10:24:59;3.13;;;1.60;;
3280;SDS011;1652;51.318;6.202;2023-04-25T10:27:30;2.90;;;2.00;;
3280;SDS011;1652;51.318;6.202;2023-04-25T10:30:04;10.93;;;3.67;;
3280;SDS011;1652;51.318;6.202;2023-04-25T10:32:43;4.87;;;1.93;;
3280;SDS011;1652;51.318;6.202;2023-04-25T10:37:56;8.70;;;1.70;;
3280;SDS011;1652;51.318;6.202;2023-04-25T10:40:25;5.70;;;2.00;;
3280;SDS011;1652;51.318;6.202;2023-04-25T10:42:52;3.00;;;1.20;;
3280;SDS011;1652;51.318;6.202;2023-04-25T10:45:22;3.63;;;2.10;;
3280;SDS011;1652;51.318;6.202;2023-04-25T10:47:49;4.77;;;1.90;;
3280;SDS011;1652;51.318;6.202;2023-04-25T10:50:17;7.00;;;2.67;;
3280;SDS011;1652;51.318;6.202;2023-04-25T10:52:44;2.43;;;2.23;;
3280;SDS011;1652;51.318;6.202;2023-04-25T10:55:11;2.73;;;2.40;;
3280;SDS011;1652;51.318;6.202;2023-04-25T10:57:41;2.43;;;2.23;;
3280;SDS011;1652;51.318;6.202;2023-04-25T11:00:11;3.50;;;1.57;;
3280;SDS011;1652;51.318;6.202;2023-04-25T11:02:42;7.03;;;3.50;;
3280;SDS011;1652;51.318;6.202;2023-04-25T11:05:33;6.90;;;2.53;;
3280;SDS011;1652;51.318;6.202;2023-04-25T11:08:25;5.23;;;1.27;;
3280;SDS011;1652;51.318;6.202;2023-04-25T11:11:14;7.60;;;2.00;;
3280;SDS011;1652;51.318;6.202;2023-04-25T11:13:41;6.83;;;1.70;;
3280;SDS011;1652;51.318;6.202;2023-04-25T11:16:08;4.00;;;1.60;;
3280;SDS011;1652;51.318;6.202;2023-04-25T11:18:40;3.63;;;1.50;;
3280;SDS011;1652;51.318;6.202;2023-04-25T11:21:08;2.90;;;1.53;;
3280;SDS011;1652;51.318;6.202;2023-04-25T11:23:36;4.17;;;1.40;;
3280;SDS011;1652;51.318;6.202;2023-04-25T11:26:03;1.83;;;1.10;;
3280;SDS011;1652;51.318;6.202;2023-04-25T11:28:30;3.80;;;1.47;;
3280;SDS011;1652;51.318;6.202;2023-04-25T11:30:57;5.37;;;1.40;;
3280;SDS011;1652;51.318;6.202;2023-04-25T11:33:24;5.90;;;1.53;;
3280;SDS011;1652;51.318;6.202;2023-04-25T11:35:54;3.87;;;1.40;;
3280;SDS011;1652;51.318;6.202;2023-04-25T11:38:24;1.53;;;1.43;;
3280;SDS011;1652;51.318;6.202;2023-04-25T11:40:54;11.73;;;1.10;;
3280;SDS011;1652;51.318;6.202;2023-04-25T11:43:21;1.17;;;0.90;;
3280;SDS011;1652;51.318;6.202;2023-04-25T11:45:49;7.60;;;1.63;;
3280;SDS011;1652;51.318;6.202;2023-04-25T11:48:19;1.87;;;1.17;;
3280;SDS011;1652;51.318;6.202;2023-04-25T11:50:51;1.00;;;0.90;;
3280;SDS011;1652;51.318;6.202;2023-04-25T11:53:19;2.10;;;1.90;;
3280;SDS011;1652;51.318;6.202;2023-04-25T11:55:46;5.60;;;1.70;;
3280;SDS011;1652;51.318;6.202;2023-04-25T11:58:14;1.60;;;0.70;;
3280;SDS011;1652;51.318;6.202;2023-04-25T12:00:41;1.17;;;1.07;;
3280;SDS011;1652;51.318;6.202;2023-04-25T12:03:17;2.97;;;2.10;;
3280;SDS011;1652;51.318;6.202;2023-04-25T12:05:45;1.10;;;1.00;;
3280;SDS011;1652;51.318;6.202;2023-04-25T12:08:13;7.23;;;1.30;;
3280;SDS011;1652;51.318;6.202;2023-04-25T12:10:41;2.47;;;0.90;;
3280;SDS011;1652;51.318;6.202;2023-04-25T12:13:25;2.00;;;0.90;;
3280;SDS011;1652;51.318;6.202;2023-04-25T12:15:54;4.00;;;3.60;;
3280;SDS011;1652;51.318;6.202;2023-04-25T12:18:23;2.63;;;2.23;;
3280;SDS011;1652;51.318;6.202;2023-04-25T12:20:52;5.90;;;1.20;;
3280;SDS011;1652;51.318;6.202;2023-04-25T12:23:27;4.73;;;0.80;;
3280;SDS011;1652;51.318;6.202;2023-04-25T12:25:54;1.57;;;1.10;;
3280;SDS011;1652;51.318;6.202;2023-04-25T12:28:23;1.83;;;1.20;;
3280;SDS011;1652;51.318;6.202;2023-04-25T12:31:09;2.37;;;1.20;;
3280;SDS011;1652;51.318;6.202;2023-04-25T12:33:36;3.60;;;1.70;;
3280;SDS011;1652;51.318;6.202;2023-04-25T12:36:05;2.10;;;1.23;;
3280;SDS011;1652;51.318;6.202;2023-04-25T12:38:41;6.00;;;1.77;;
3280;SDS011;1652;51.318;6.202;2023-04-25T12:41:08;4.73;;;2.93;;
3280;SDS011;1652;51.318;6.202;2023-04-25T12:43:35;5.53;;;2.03;;
3280;SDS011;1652;51.318;6.202;2023-04-25T12:46:02;9.40;;;1.57;;
3280;SDS011;1652;51.318;6.202;2023-04-25T12:48:29;3.07;;;1.50;;
3280;SDS011;1652;51.318;6.202;2023-04-25T12:50:56;5.43;;;1.40;;
3280;SDS011;1652;51.318;6.202;2023-04-25T12:53:23;12.43;;;3.37;;
3280;SDS011;1652;51.318;6.202;2023-04-25T12:55:50;10.73;;;2.20;;
3280;SDS011;1652;51.318;6.202;2023-04-25T12:58:18;2.20;;;1.60;;
3280;SDS011;1652;51.318;6.202;2023-04-25T13:00:46;5.00;;;1.53;;
3280;SDS011;1652;51.318;6.202;2023-04-25T13:03:14;4.00;;;1.87;;
3280;SDS011;1652;51.318;6.202;2023-04-25T13:05:41;4.30;;;1.50;;
3280;SDS011;1652;51.318;6.202;2023-04-25T13:08:08;8.17;;;1.97;;
3280;SDS011;1652;51.318;6.202;2023-04-25T13:10:35;3.40;;;1.97;;
3280;SDS011;1652;51.318;6.202;2023-04-25T13:13:04;43.67;;;18.77;;
3280;SDS011;1652;51.318;6.202;2023-04-25T13:15:31;6.03;;;1.90;;
3280;SDS011;1652;51.318;6.202;2023-04-25T13:17:58;6.87;;;1.70;;
3280;SDS011;1652;51.318;6.202;2023-04-25T13:20:26;1.53;;;1.40;;
3280;SDS011;1652;51.318;6.202;2023-04-25T13:22:53;4.70;;;2.13;;
3280;SDS011;1652;51.318;6.202;2023-04-25T13:25:20;3.57;;;2.20;;
3280;SDS011;1652;51.318;6.202;2023-04-25T13:27:48;3.10;;;2.00;;
3280;SDS011;1652;51.318;6.202;2023-04-25T13:30:15;2.40;;;1.83;;
3280;SDS011;1652;51.318;6.202;2023-04-25T13:32:42;1.40;;;1.30;;
3280;SDS011;1652;51.318;6.202;2023-04-25T13:35:09;2.60;;;1.20;;
3280;SDS011;1652;51.318;6.202;2023-04-25T13:37:38;3.97;;;2.00;;
3280;SDS011;1652;51.318;6.202;2023-04-25T13:40:06;9.60;;;1.97;;
3280;SDS011;1652;51.318;6.202;2023-04-25T13:42:36;2.00;;;1.47;;
3280;SDS011;1652;51.318;6.202;2023-04-25T13:45:04;2.30;;;1.70;;
3280;SDS011;1652;51.318;6.202;2023-04-25T13:47:32;5.47;;;1.43;;
3280;SDS011;1652;51.318;6.202;2023-04-25T13:49:59;6.10;;;2.60;;
3280;SDS011;1652;51.318;6.202;2023-04-25T13:52:26;1.97;;;1.70;;
3280;SDS011;1652;51.318;6.202;2023-04-25T13:54:53;2.20;;;1.50;;
3280;SDS011;1652;51.318;6.202;2023-04-25T13:57:20;1.23;;;1.13;;
3280;SDS011;1652;51.318;6.202;2023-04-25T13:59:47;2.30;;;1.00;;
3280;SDS011;1652;51.318;6.202;2023-04-25T14:02:14;2.00;;;1.00;;
3280;SDS011;1652;51.318;6.202;2023-04-25T14:04:41;2.50;;;1.03;;
3280;SDS011;1652;51.318;6.202;2023-04-25T14:07:08;7.93;;;2.50;;
3280;SDS011;1652;51.318;6.202;2023-04-25T14:09:35;1.90;;;0.97;;
3280;SDS011;1652;51.318;6.202;2023-04-25T14:12:02;12.13;;;6.87;;
3280;SDS011;1652;51.318;6.202;2023-04-25T14:14:29;2.53;;;2.33;;
3280;SDS011;1652;51.318;6.202;2023-04-25T14:16:56;3.13;;;0.83;;
3280;SDS011;1652;51.318;6.202;2023-04-25T14:19:23;1.00;;;0.90;;
3280;SDS011;1652;51.318;6.202;2023-04-25T14:21:50;2.73;;;0.90;;
3280;SDS011;1652;51.318;6.202;2023-04-25T14:24:17;2.40;;;0.80;;
3280;SDS011;1652;51.318;6.202;2023-04-25T14:26:44;0.87;;;0.80;;
3280;SDS011;1652;51.318;6.202;2023-04-25T14:29:11;4.63;;;1.40;;
3280;SDS011;1652;51.318;6.202;2023-04-25T14:31:39;6.97;;;1.90;;
3280;SDS011;1652;51.318;6.202;2023-04-25T14:34:07;2.93;;;1.20;;
3280;SDS011;1652;51.318;6.202;2023-04-25T14:36:35;2.73;;;1.47;;
3280;SDS011;1652;51.318;6.202;2023-04-25T14:39:02;4.83;;;3.00;;
3280;SDS011;1652;51.318;6.202;2023-04-25T14:41:31;1.70;;;1.20;;
3280;SDS011;1652;51.318;6.202;2023-04-25T14:43:58;2.53;;;1.33;;
3280;SDS011;1652;51.318;6.202;2023-04-25T14:46:25;1.43;;;1.33;;
3280;SDS011;1652;51.318;6.202;2023-04-25T14:48:52;8.83;;;1.10;;
3280;SDS011;1652;51.318;6.202;2023-04-25T14:51:22;1.80;;;1.17;;
3280;SDS011;1652;51.318;6.202;2023-04-25T14:53:49;2.27;;;1.40;;
3280;SDS011;1652;51.318;6.202;2023-04-25T14:56:17;2.23;;;1.40;;
3280;SDS011;1652;51.318;6.202;2023-04-25T14:58:45;2.33;;;1.50;;
3280;SDS011;1652;51.318;6.202;2023-04-25T15:01:12;2.73;;;1.30;;
3280;SDS011;1652;51.318;6.202;2023-04-25T15:03:40;17.37;;;1.97;;
3280;SDS011;1652;51.318;6.202;2023-04-25T15:06:07;23.63;;;15.50;;
3280;SDS011;1652;51.318;6.202;2023-04-25T15:08:35;3.77;;;2.23;;
3280;SDS011;1652;51.318;6.202;2023-04-25T15:11:02;3.10;;;1.50;;
3280;SDS011;1652;51.318;6.202;2023-04-25T15:13:29;2.30;;;1.33;;
3280;SDS011;1652;51.318;6.202;2023-04-25T15:15:56;5.40;;;1.23;;
3280;SDS011;1652;51.318;6.202;2023-04-25T15:18:23;1.03;;;0.93;;
3280;SDS011;1652;51.318;6.202;2023-04-25T15:20:50;1.20;;;1.10;;
3280;SDS011;1652;51.318;6.202;2023-04-25T15:23:19;1.60;;;1.30;;
3280;SDS011;1652;51.318;6.202;2023-04-25T15:25:49;13.53;;;4.90;;
3280;SDS011;1652;51.318;6.202;2023-04-25T15:28:17;4.30;;;1.53;;
3280;SDS011;1652;51.318;6.202;2023-04-25T15:30:45;2.07;;;1.10;;